Time;durP1;ratioP1;P1;durP2;ratioP2;P2;SDS_P1;SDS_P2;PMS_P1;PMS_P2;Temp;Humidity;BMP_temperature;BMP_pressure;BME280_temperature;BME280_humidity;BME280_pressure;Samples;Min_cycle;Max_cycle;Signal;HPM_P1;HPM_P2
2023/09/02 00:01:34;;;;;;;;;16.00;11.67;;;;;21.55;68.32;101092.09;4993981;27;45287;-67
2023/09/02 00:04:02;;;;;;;;;14.33;11.67;;;;;21.49;68.75;101092.31;4994634;27;45419;-68
2023/09/02 00:06:27;;;;;;;;;13.33;11.33;;;;;21.43;69.02;101081.91;4993439;27;45370;-66
2023/09/02 00:08:53;;;;;;;;;14.00;9.00;;;;;21.43;69.03;101081.91;4994032;27;45516;-69
2023/09/02 00:11:18;;;;;;;;;14.00;12.00;;;;;21.38;68.84;101083.84;4994173;27;45197;-65
2023/09/02 00:13:44;;;;;;;;;10.33;9.33;;;;;21.38;68.58;101078.53;5001815;27;45410;-68
2023/09/02 00:16:09;;;;;;;;;12.33;11.33;;;;;21.35;68.69;101087.47;4979242;27;46454;-67
2023/09/02 00:18:36;;;;;;;;;12.00;9.67;;;;;21.32;68.90;101092.91;4980249;28;45705;-67
2023/09/02 00:21:02;;;;;;;;;10.33;9.00;;;;;21.29;68.79;101085.06;4980228;27;45484;-64
2023/09/02 00:23:28;;;;;;;;;8.67;7.67;;;;;21.31;68.50;101095.66;4977459;28;45450;-66
2023/09/02 00:25:54;;;;;;;;;8.00;7.33;;;;;21.28;68.64;101099.28;4993633;27;46080;-67
2023/09/02 00:28:19;;;;;;;;;7.33;7.00;;;;;21.24;68.65;101097.69;4989802;27;45593;-65
2023/09/02 00:30:45;;;;;;;;;10.33;6.33;;;;;21.16;68.87;101078.44;4977816;28;45552;-66
2023/09/02 00:33:11;;;;;;;;;9.00;7.00;;;;;21.18;68.92;101093.44;4966822;28;45518;-65
2023/09/02 00:35:36;;;;;;;;;7.67;6.67;;;;;21.16;68.77;101089.94;4980683;28;45462;-68
2023/09/02 00:38:02;;;;;;;;;8.67;6.67;;;;;21.15;68.96;101093.53;4986023;27;45568;-67
2023/09/02 00:40:29;;;;;;;;;7.33;7.33;;;;;21.14;68.90;101088.25;4985060;27;45400;-66
2023/09/02 00:43:00;;;;;;;;;4.33;4.00;;;;;21.09;68.94;101088.44;4971430;27;45393;-66
2023/09/02 00:45:25;;;;;;;;;7.67;6.67;;;;;21.18;68.75;101100.56;4972778;27;47647;-65
2023/09/02 00:47:53;;;;;;;;;9.33;7.00;;;;;21.16;68.64;101099.72;4974089;28;45520;-65
2023/09/02 00:50:19;;;;;;;;;7.67;6.00;;;;;21.15;68.66;101104.19;4942490;27;45546;-64
2023/09/02 00:52:47;;;;;;;;;7.00;6.67;;;;;21.13;68.50;101094.53;4974073;27;45598;-67
2023/09/02 00:55:13;;;;;;;;;6.00;6.00;;;;;21.15;68.84;101101.53;4973336;28;46211;-67
2023/09/02 00:57:39;;;;;;;;;6.00;6.00;;;;;21.10;68.80;101095.50;4975808;27;45350;-67
2023/09/02 01:00:05;;;;;;;;;9.33;5.67;;;;;21.11;68.68;101094.56;4978308;27;45560;-65
2023/09/02 01:02:36;;;;;;;;;5.33;5.00;;;;;21.09;68.99;101096.41;4978280;27;45462;-66
2023/09/02 01:05:02;;;;;;;;;5.67;5.67;;;;;21.00;69.02;101080.78;4962935;28;47777;-67
2023/09/02 01:07:29;;;;;;;;;10.33;7.00;;;;;21.03;69.05;101088.66;4977004;27;45490;-66
2023/09/02 01:09:55;;;;;;;;;7.33;5.33;;;;;21.08;68.77;101086.69;4976306;27;45560;-66
2023/09/02 01:12:21;;;;;;;;;4.67;3.00;;;;;21.08;68.75;101088.50;4987318;27;45600;-67
2023/09/02 01:14:47;;;;;;;;;4.00;4.00;;;;;21.05;68.82;101092.16;4976152;27;45571;-66
2023/09/02 01:17:12;;;;;;;;;7.00;6.00;;;;;20.95;69.29;101091.59;4999777;27;45422;-67
2023/09/02 01:19:41;;;;;;;;;6.00;6.00;;;;;20.85;69.54;101086.66;4979272;28;45499;-67
2023/09/02 01:22:15;;;;;;;;;5.33;4.67;;;;;20.96;69.26;101095.13;4984331;27;45457;-67
2023/09/02 01:24:48;;;;;;;;;6.33;5.00;;;;;20.86;69.19;101081.28;4996902;27;46417;-65
2023/09/02 01:27:27;;;;;;;;;10.67;6.00;;;;;20.66;69.88;101071.31;4997159;27;45470;-66
2023/09/02 01:30:08;;;;;;;;;7.33;6.67;;;;;20.79;70.03;101100.19;4996944;27;45313;-65
2023/09/02 01:32:38;;;;;;;;;9.33;7.00;;;;;20.71;70.34;101098.63;4996568;27;45330;-70
2023/09/02 01:35:06;;;;;;;;;6.33;5.00;;;;;20.75;70.57;101102.94;4979105;27;47679;-69
2023/09/02 01:37:43;;;;;;;;;6.33;6.33;;;;;20.70;70.84;101098.72;4995754;27;45364;-69
2023/09/02 01:40:14;;;;;;;;;6.33;6.33;;;;;20.58;71.23;101089.34;4996038;27;45521;-69
2023/09/02 01:42:42;;;;;;;;;8.67;7.67;;;;;20.54;71.69;101095.66;4996194;27;45428;-70
2023/09/02 01:45:09;;;;;;;;;7.00;6.67;;;;;20.60;72.22;101099.97;4995693;27;45338;-66
2023/09/02 01:47:36;;;;;;;;;9.67;6.33;;;;;20.58;72.04;101100.00;4995633;27;45576;-70
2023/09/02 01:50:04;;;;;;;;;7.67;7.33;;;;;20.59;71.85;101085.75;4998757;28;45403;-69
2023/09/02 01:52:30;;;;;;;;;8.00;8.00;;;;;20.53;71.85;101083.28;5000279;27;45330;-69
2023/09/02 01:54:56;;;;;;;;;9.33;7.67;;;;;20.62;72.25;101090.09;4997012;27;45579;-67
2023/09/02 01:57:22;;;;;;;;;8.00;7.33;;;;;20.56;72.18;101080.53;4995871;27;45318;-69
2023/09/02 01:59:48;;;;;;;;;8.00;8.00;;;;;20.52;71.78;101079.75;4996331;27;45276;-67
2023/09/02 02:02:16;;;;;;;;;8.00;8.00;;;;;20.46;72.04;101071.97;4995715;27;45347;-67
2023/09/02 02:04:46;;;;;;;;;11.00;9.00;;;;;20.51;72.01;101071.81;4996842;27;46213;-66
2023/09/02 02:07:15;;;;;;;;;8.33;8.00;;;;;20.55;71.93;101081.44;4979173;28;45368;-67
2023/09/02 02:09:46;;;;;;;;;9.00;7.67;;;;;20.43;72.39;101069.44;4997141;27;45612;-69
2023/09/02 02:12:12;;;;;;;;;10.33;6.67;;;;;20.42;72.41;101083.63;4996362;27;45429;-71
2023/09/02 02:14:38;;;;;;;;;5.00;5.00;;;;;20.26;72.85;101053.13;4995041;27;46615;-65
2023/09/02 02:17:06;;;;;;;;;8.67;8.67;;;;;20.24;72.60;101042.56;4988618;27;45532;-68
2023/09/02 02:19:32;;;;;;;;;6.67;6.33;;;;;20.34;72.45;101045.78;4988822;27;45261;-66
2023/09/02 02:22:00;;;;;;;;;9.00;9.00;;;;;20.43;72.62;101057.88;4993590;27;45441;-68
2023/09/02 02:24:26;;;;;;;;;11.33;8.00;;;;;20.32;72.41;101045.84;4995144;27;45640;-67
2023/09/02 02:26:52;;;;;;;;;8.33;6.00;;;;;20.30;72.34;101042.34;4982400;27;45719;-68
2023/09/02 02:29:17;;;;;;;;;8.67;7.00;;;;;20.37;72.39;101056.31;4994449;27;45477;-67
2023/09/02 02:31:43;;;;;;;;;8.67;8.67;;;;;20.37;72.23;101056.31;4985207;27;45457;-66
2023/09/02 02:34:09;;;;;;;;;7.00;6.33;;;;;20.44;72.23;101075.59;4978926;27;45398;-68
2023/09/02 02:36:34;;;;;;;;;8.33;6.67;;;;;20.18;72.15;101039.25;4996799;27;45460;-68
2023/09/02 02:39:03;;;;;;;;;5.33;5.00;;;;;20.30;72.33;101065.44;4983854;27;45479;-66
2023/09/02 02:41:28;;;;;;;;;5.67;4.67;;;;;20.16;72.66;101049.91;4975996;28;45559;-67
2023/09/02 02:43:54;;;;;;;;;6.33;6.33;;;;;20.27;72.41;101070.84;4994858;27;45932;-66
2023/09/02 02:46:19;;;;;;;;;6.67;5.33;;;;;20.26;72.37;101075.31;4977531;27;45438;-67
2023/09/02 02:48:45;;;;;;;;;7.67;5.00;;;;;20.15;72.77;101058.81;4995185;27;45513;-67
2023/09/02 02:51:10;;;;;;;;;8.67;6.00;;;;;20.19;72.75;101072.88;4995002;27;45908;-66
2023/09/02 02:53:36;;;;;;;;;9.67;7.33;;;;;20.17;72.65;101074.72;4995132;27;46179;-68
2023/09/02 02:56:02;;;;;;;;;8.00;7.00;;;;;20.08;72.33;101059.94;4983899;27;45158;-66
2023/09/02 02:58:29;;;;;;;;;8.67;6.00;;;;;20.20;72.66;101079.97;4993578;27;45417;-65
2023/09/02 03:01:05;;;;;;;;;5.00;4.33;;;;;20.13;72.45;101074.81;4996478;27;45592;-68
2023/09/02 03:03:32;;;;;;;;;6.00;4.50;;;;;20.08;72.69;101067.94;4994983;27;45358;-70
2023/09/02 03:06:00;;;;;;;;;4.00;4.00;;;;;20.07;72.38;101068.81;4994842;27;45433;-69
2023/09/02 03:08:25;;;;;;;;;7.00;7.00;;;;;20.01;72.64;101063.72;4994321;27;45496;-69
2023/09/02 03:11:01;;;;;;;;;3.33;3.00;;;;;20.09;72.42;101083.81;4995017;27;45374;-69
2023/09/02 03:13:28;;;;;;;;;8.67;4.00;;;;;20.13;72.25;101081.94;4994286;27;46169;-68
2023/09/02 03:15:55;;;;;;;;;4.00;3.33;;;;;20.19;72.21;101089.69;4994603;27;45488;-69
2023/09/02 03:18:21;;;;;;;;;6.67;4.00;;;;;20.19;72.14;101092.34;4995136;27;45429;-69
2023/09/02 03:20:46;;;;;;;;;6.00;3.00;;;;;20.16;71.93;101079.16;4993962;27;45331;-69
2023/09/02 03:23:12;;;;;;;;;6.00;4.00;;;;;20.23;71.79;101093.16;4994017;27;46076;-67
2023/09/02 03:25:38;;;;;;;;;3.00;3.00;;;;;20.14;72.08;101086.31;4994360;27;45531;-68
2023/09/02 03:28:04;;;;;;;;;2.00;2.00;;;;;20.25;71.73;101104.59;4994815;27;45527;-69
2023/09/02 03:30:30;;;;;;;;;3.00;3.00;;;;;20.19;71.62;101084.38;4980961;27;45524;-69
2023/09/02 03:32:56;;;;;;;;;3.00;3.00;;;;;20.24;71.73;101103.75;4994502;28;45518;-67
2023/09/02 03:35:21;;;;;;;;;3.33;3.33;;;;;20.25;71.82;101099.28;4994940;27;45333;-66
2023/09/02 03:37:47;;;;;;;;;4.33;4.33;;;;;20.29;71.42;101096.47;4994481;27;45453;-65
2023/09/02 03:40:12;;;;;;;;;4.00;4.00;;;;;20.38;71.02;101110.38;4994986;27;45300;-68
2023/09/02 03:42:38;;;;;;;;;4.67;4.33;;;;;20.40;71.23;101114.72;4994830;27;46575;-69
2023/09/02 03:45:04;;;;;;;;;2.67;2.67;;;;;20.37;71.22;101111.31;4994646;27;45406;-68
2023/09/02 03:47:33;;;;;;;;;4.00;3.33;;;;;20.23;70.86;101101.13;4976927;27;45552;-67
2023/09/02 03:49:59;;;;;;;;;4.67;3.00;;;;;20.27;70.71;101103.63;4994815;27;45421;-67
2023/09/02 03:52:25;;;;;;;;;5.00;4.00;;;;;20.42;70.88;101125.34;4994221;27;46383;-68
2023/09/02 03:54:51;;;;;;;;;2.33;2.33;;;;;20.36;70.80;101105.13;4976708;28;45436;-66
2023/09/02 03:57:16;;;;;;;;;5.00;5.00;;;;;20.46;70.56;101119.00;4994143;27;45239;-65
2023/09/02 03:59:42;;;;;;;;;3.33;3.33;;;;;20.46;70.45;101114.53;4994311;27;45496;-67
2023/09/02 04:02:07;;;;;;;;;5.33;5.00;;;;;20.42;70.39;101102.25;4994018;28;46179;-65
2023/09/02 04:04:33;;;;;;;;;4.00;2.67;;;;;20.43;70.45;101101.34;4993976;28;45272;-65
2023/09/02 04:06:59;;;;;;;;;2.00;2.00;;;;;20.38;70.71;101084.66;4994219;27;45244;-67
2023/09/02 04:09:24;;;;;;;;;3.33;3.33;;;;;20.41;70.82;101097.00;4994722;27;45470;-67
2023/09/02 04:11:50;;;;;;;;;4.00;4.00;;;;;20.36;70.67;101099.81;4993645;27;45440;-67
2023/09/02 04:14:15;;;;;;;;;5.00;5.00;;;;;20.32;70.99;101096.38;4976469;28;45897;-67
2023/09/02 04:16:41;;;;;;;;;4.67;4.67;;;;;20.31;71.02;101101.72;4993728;27;45415;-64
2023/09/02 04:19:06;;;;;;;;;5.33;5.33;;;;;20.29;70.99;101090.31;4994137;27;45271;-65
2023/09/02 04:21:32;;;;;;;;;4.33;4.33;;;;;20.33;71.05;101092.81;4993631;27;46127;-66
2023/09/02 04:23:58;;;;;;;;;7.00;5.50;;;;;20.32;70.78;101101.69;4993764;27;45399;-66
2023/09/02 04:26:24;;;;;;;;;4.33;4.33;;;;;20.26;71.10;101088.59;4994538;28;45406;-66
2023/09/02 04:28:50;;;;;;;;;4.00;4.00;;;;;20.19;71.04;101083.50;4975423;28;45456;-65
2023/09/02 04:31:16;;;;;;;;;5.33;3.33;;;;;20.16;71.37;101096.91;4980597;27;45473;-65
2023/09/02 04:33:41;;;;;;;;;4.33;4.33;;;;;20.08;71.32;101099.84;4978787;28;45525;-66
2023/09/02 04:36:07;;;;;;;;;5.00;5.00;;;;;20.06;71.42;101099.00;4996851;27;45515;-65
2023/09/02 04:38:33;;;;;;;;;5.67;3.67;;;;;20.04;71.16;101088.41;4998017;27;45338;-67
2023/09/02 04:41:03;;;;;;;;;3.00;3.00;;;;;20.06;71.13;101109.66;4997457;27;45477;-68
2023/09/02 04:43:29;;;;;;;;;4.00;2.67;;;;;20.09;71.21;101113.06;4996215;27;45490;-67
2023/09/02 04:45:54;;;;;;;;;5.00;5.00;;;;;20.06;71.00;101115.81;4997619;27;45433;-68
2023/09/02 04:48:20;;;;;;;;;5.67;4.00;;;;;20.05;71.12;101124.72;4997450;27;45306;-66
2023/09/02 04:50:53;;;;;;;;;7.00;5.00;;;;;20.04;71.21;101117.66;4996498;27;45680;-67
2023/09/02 04:53:19;;;;;;;;;6.00;5.00;;;;;19.87;71.29;101088.94;4996481;27;45300;-69
2023/09/02 04:55:44;;;;;;;;;3.33;3.33;;;;;19.77;71.50;101087.50;4996746;27;45431;-70
2023/09/02 04:58:10;;;;;;;;;3.00;3.00;;;;;19.84;71.45;101099.69;4996444;27;45497;-69
2023/09/02 05:00:37;;;;;;;;;3.00;3.00;;;;;19.86;71.53;101103.16;4996329;27;45453;-69
2023/09/02 05:03:03;;;;;;;;;3.67;3.67;;;;;19.89;71.31;101108.38;4997005;27;45507;-66
2023/09/02 05:05:29;;;;;;;;;4.67;4.33;;;;;19.83;71.54;101105.03;4997838;27;45512;-65
2023/09/02 05:07:55;;;;;;;;;5.00;4.33;;;;;19.95;71.59;101115.28;4997767;27;45220;-65
2023/09/02 05:10:21;;;;;;;;;4.33;4.33;;;;;19.99;71.58;101118.72;4997234;27;45481;-67
2023/09/02 05:12:47;;;;;;;;;4.33;4.33;;;;;19.86;71.66;101119.13;4997165;27;45457;-64
2023/09/02 05:15:12;;;;;;;;;4.00;3.00;;;;;19.89;71.43;101131.44;4979649;27;45426;-64
2023/09/02 05:17:38;;;;;;;;;4.33;4.33;;;;;19.92;71.74;101129.53;4998786;27;45347;-66
2023/09/02 05:20:11;;;;;;;;;4.67;3.67;;;;;19.84;71.29;101104.13;4996596;27;46459;-68
2023/09/02 05:22:36;;;;;;;;;5.00;3.67;;;;;19.96;71.37;101124.16;4978411;27;45482;-69
2023/09/02 05:25:04;;;;;;;;;4.00;4.00;;;;;19.81;71.30;101098.88;4996083;27;45529;-69
2023/09/02 05:27:30;;;;;;;;;3.33;3.33;;;;;19.68;70.92;101069.16;4997030;27;45444;-68
2023/09/02 05:29:56;;;;;;;;;2.67;2.67;;;;;20.01;70.84;101119.56;4978306;28;47181;-67
2023/09/02 05:32:22;;;;;;;;;6.00;5.00;;;;;20.05;70.67;101123.84;4978129;27;45562;-66
2023/09/02 05:34:49;;;;;;;;;4.67;3.67;;;;;20.22;70.64;101145.47;4995754;27;45495;-67
2023/09/02 05:37:14;;;;;;;;;4.00;3.33;;;;;19.89;70.60;101097.75;4996459;27;45372;-69
2023/09/02 05:39:40;;;;;;;;;4.00;4.00;;;;;20.17;70.23;101143.84;4996160;27;46119;-68
2023/09/02 05:42:05;;;;;;;;;3.33;3.33;;;;;20.28;70.19;101155.03;5059215;27;45372;-69
2023/09/02 05:44:34;;;;;;;;;3.67;3.67;;;;;20.32;70.42;101154.91;5007529;27;45512;-67
2023/09/02 05:47:00;;;;;;;;;4.00;4.00;;;;;20.27;70.00;101145.34;4997501;27;45529;-66
2023/09/02 05:49:26;;;;;;;;;3.00;3.00;;;;;20.49;69.63;101172.09;4996678;27;45775;-66
2023/09/02 05:51:51;;;;;;;;;3.67;2.67;;;;;20.52;69.20;101161.34;4996068;27;45504;-68
2023/09/02 05:54:17;;;;;;;;;7.33;4.33;;;;;20.54;69.65;101186.13;4996587;27;45640;-70
2023/09/02 05:56:42;;;;;;;;;4.00;4.00;;;;;20.52;69.33;101183.53;4996982;27;45241;-67
2023/09/02 05:59:08;;;;;;;;;6.67;6.00;;;;;20.46;69.14;101185.53;4977867;28;48200;-65
2023/09/02 06:01:34;;;;;;;;;6.00;6.00;;;;;20.27;69.37;101146.19;4995325;27;45331;-67
2023/09/02 06:04:00;;;;;;;;;7.00;5.00;;;;;19.91;69.20;101105.69;4995799;27;45785;-66
2023/09/02 06:06:25;;;;;;;;;6.00;5.33;;;;;20.43;69.22;101162.53;4996807;27;45588;-68
2023/09/02 06:08:53;;;;;;;;;6.33;4.00;;;;;20.55;69.15;101163.94;4996271;27;45415;-65
2023/09/02 06:11:19;;;;;;;;;8.67;4.67;;;;;20.34;68.71;101123.78;4994894;27;45445;-66
2023/09/02 06:13:44;;;;;;;;;4.33;4.33;;;;;20.46;68.66;101162.44;4995263;27;45686;-66
2023/09/02 06:16:14;;;;;;;;;5.33;5.33;;;;;20.55;68.78;101177.25;4995616;27;45586;-68
2023/09/02 06:18:40;;;;;;;;;10.00;6.00;;;;;20.47;68.50;101150.00;4996091;27;45569;-66
2023/09/02 06:21:13;;;;;;;;;7.33;5.33;;;;;20.50;68.47;101152.53;4996522;27;45464;-66
2023/09/02 06:23:45;;;;;;;;;4.33;4.33;;;;;20.61;68.65;101171.72;4995128;27;45763;-67
2023/09/02 06:26:12;;;;;;;;;6.00;5.00;;;;;20.64;68.43;101182.28;4977815;27;45527;-67
2023/09/02 06:28:39;;;;;;;;;6.00;5.00;;;;;20.33;68.61;101153.09;4994832;27;45467;-65
2023/09/02 06:31:08;;;;;;;;;6.00;4.67;;;;;20.51;68.78;101164.94;4964545;27;45394;-66
2023/09/02 06:33:34;;;;;;;;;4.67;4.67;;;;;20.71;68.72;101189.13;4978787;27;45533;-68
2023/09/02 06:36:19;;;;;;;;;4.00;4.00;;;;;20.69;68.51;101185.69;4996591;27;45542;-66
2023/09/02 06:38:55;;;;;;;;;6.00;5.67;;;;;20.68;68.43;101180.41;4995780;27;45487;-64
2023/09/02 06:41:21;;;;;;;;;4.00;4.00;;;;;20.29;68.59;101109.78;4995412;27;45375;-68
2023/09/02 06:43:46;;;;;;;;;3.33;3.33;;;;;20.88;68.13;101201.91;4995398;27;45321;-65
2023/09/02 06:46:15;;;;;;;;;11.33;7.00;;;;;20.40;67.85;101117.38;4995075;27;45418;-66
2023/09/02 06:48:41;;;;;;;;;10.00;8.00;;;;;20.78;68.06;101181.81;4995238;27;45997;-67
2023/09/02 06:51:07;;;;;;;;;8.67;8.33;;;;;20.45;67.97;101107.47;4978149;27;45407;-63
2023/09/02 06:53:33;;;;;;;;;5.67;5.67;;;;;20.90;67.25;101173.41;4996171;27;45410;-66
2023/09/02 06:55:59;;;;;;;;;6.67;6.00;;;;;21.01;66.69;101172.19;4995067;27;45506;-69
2023/09/02 06:58:24;;;;;;;;;5.00;5.00;;;;;21.16;67.11;101180.50;4996302;27;45549;-65
2023/09/02 07:00:50;;;;;;;;;7.67;4.67;;;;;21.23;66.31;101174.97;4996278;27;45513;-66
2023/09/02 07:03:16;;;;;;;;;8.00;6.00;;;;;21.31;65.91;101164.94;4995879;27;45369;-68
2023/09/02 07:05:42;;;;;;;;;8.00;5.67;;;;;21.64;66.09;101196.63;4994901;27;45433;-69
2023/09/02 07:08:07;;;;;;;;;6.67;4.33;;;;;21.38;65.08;101132.69;4995522;27;45556;-68
2023/09/02 07:10:33;;;;;;;;;6.67;4.67;;;;;22.01;64.59;101214.78;4995734;27;45895;-70
2023/09/02 07:12:58;;;;;;;;;5.33;4.67;;;;;22.24;64.09;101211.28;4989944;27;45643;-65
2023/09/02 07:15:28;;;;;;;;;4.33;4.00;;;;;22.32;63.04;101193.16;4991130;27;45523;-66
2023/09/02 07:17:54;;;;;;;;;3.33;2.00;;;;;22.27;62.95;101187.13;4996340;27;46416;-66
2023/09/02 07:20:28;;;;;;;;;5.00;3.67;;;;;22.46;62.65;101221.97;4995599;27;45391;-67
2023/09/02 07:22:53;;;;;;;;;3.67;3.67;;;;;22.38;62.85;101222.28;4995334;27;45469;-68
2023/09/02 07:25:20;;;;;;;;;4.50;3.50;;;;;22.26;62.57;101208.53;4995173;27;45390;-65
2023/09/02 07:27:45;;;;;;;;;4.25;2.50;;;;;22.28;62.87;101220.91;4994566;27;45465;-68
2023/09/02 07:30:11;;;;;;;;;6.00;4.00;;;;;22.20;62.86;101189.16;4982851;27;45395;-63
2023/09/02 07:32:37;;;;;;;;;4.00;4.00;;;;;22.42;62.33;101213.22;4992342;27;45355;-64
2023/09/02 07:35:03;;;;;;;;;3.00;3.00;;;;;22.29;62.19;101184.41;4994667;27;45479;-67
2023/09/02 07:37:29;;;;;;;;;4.67;4.67;;;;;22.46;62.55;101221.97;4994351;27;45977;-63
2023/09/02 07:39:55;;;;;;;;;2.50;2.50;;;;;22.60;62.57;101224.09;4994370;27;45323;-65
2023/09/02 07:42:21;;;;;;;;;2.50;2.50;;;;;22.51;62.43;101201.28;4994520;27;45489;-64
2023/09/02 07:44:47;;;;;;;;;3.33;3.33;;;;;22.68;62.03;101234.44;4995469;27;45544;-64
2023/09/02 07:47:12;;;;;;;;;2.00;2.00;;;;;22.76;61.96;101251.91;4994579;27;46041;-64
2023/09/02 07:49:38;;;;;;;;;3.00;3.00;;;;;22.74;61.51;101252.91;4994476;27;45454;-65
2023/09/02 07:52:38;;;;;;;;;2.50;2.50;;;;;22.90;61.73;101277.16;4994871;27;45358;-64
2023/09/02 07:55:04;;;;;;;;;3.00;3.00;;;;;23.01;61.17;101291.84;4976876;28;45432;-64
2023/09/02 07:57:30;;;;;;;;;3.25;2.25;;;;;23.05;61.07;101284.59;4994189;27;46434;-64
2023/09/02 07:59:57;;;;;;;;;4.75;3.25;;;;;23.17;60.61;101289.41;4994195;27;45525;-67
2023/09/02 08:02:23;;;;;;;;;2.75;2.75;;;;;23.25;60.49;101276.63;4994045;27;45545;-66
2023/09/02 08:04:48;;;;;;;;;3.25;3.25;;;;;23.44;59.53;101278.47;4993983;27;45737;-66
2023/09/02 08:07:14;;;;;;;;;2.00;2.00;;;;;23.52;59.55;101275.50;4993783;27;45778;-62
2023/09/02 08:09:46;;;;;;;;;4.00;3.00;;;;;23.49;59.25;101264.00;4993924;27;45684;-64
2023/09/02 08:12:12;;;;;;;;;2.50;2.50;;;;;23.79;58.98;101308.22;4995073;27;45462;-68
2023/09/02 08:14:44;;;;;;;;;4.25;4.25;;;;;23.74;59.00;101281.66;4996052;27;45418;-66
2023/09/02 08:17:11;;;;;;;;;6.50;4.25;;;;;23.86;58.33;101283.78;4976181;28;47905;-63
2023/09/02 08:19:37;;;;;;;;;4.00;3.25;;;;;23.89;58.22;101269.41;4978835;27;45437;-63
2023/09/02 08:22:02;;;;;;;;;4.25;4.00;;;;;23.97;57.80;101271.75;4993666;27;45671;-63
2023/09/02 08:24:29;;;;;;;;;4.00;3.25;;;;;23.87;58.02;101245.41;4995129;27;45465;-63
2023/09/02 08:26:55;;;;;;;;;3.50;3.50;;;;;24.04;58.28;101271.41;4973656;27;46655;-67
2023/09/02 08:29:22;;;;;;;;;2.50;2.50;;;;;24.11;57.79;101283.56;4963576;28;45425;-65
2023/09/02 08:32:11;;;;;;;;;3.00;3.00;;;;;24.12;58.07;101265.69;4993305;27;45378;-64
2023/09/02 08:34:43;;;;;;;;;3.25;3.25;;;;;24.09;57.54;101244.44;4963997;28;45621;-67
2023/09/02 08:37:10;;;;;;;;;6.00;5.00;;;;;24.21;56.86;101264.41;4965324;28;47422;-68
2023/09/02 08:39:39;;;;;;;;;4.00;4.00;;;;;24.08;57.47;101222.16;4974023;28;45509;-66
2023/09/02 08:42:09;;;;;;;;;4.00;4.00;;;;;24.36;57.02;101252.09;4957703;28;45401;-65
2023/09/02 08:44:39;;;;;;;;;4.75;4.00;;;;;23.92;57.06;101183.69;4974223;27;45331;-67
2023/09/02 08:47:06;;;;;;;;;6.00;4.50;;;;;24.38;57.53;101245.72;4973404;28;46170;-70
2023/09/02 08:49:36;;;;;;;;;4.00;4.00;;;;;24.48;57.00;101251.53;4973465;27;45653;-66
2023/09/02 08:52:03;;;;;;;;;7.50;6.25;;;;;24.50;57.49;101236.28;4973799;28;45373;-70
2023/09/02 08:54:29;;;;;;;;;6.25;6.25;;;;;24.47;56.63;101234.59;4974346;28;45425;-64
2023/09/02 08:56:57;;;;;;;;;7.75;7.00;;;;;24.55;57.06;101240.44;4973661;27;45683;-68
2023/09/02 08:59:25;;;;;;;;;6.50;5.50;;;;;24.57;56.60;101250.22;4974774;27;45358;-69
2023/09/02 09:02:00;;;;;;;;;5.00;4.75;;;;;24.52;56.80;101243.28;4974613;27;45346;-71
2023/09/02 09:04:33;;;;;;;;;6.00;5.00;;;;;24.53;56.63;101245.00;4973593;28;45474;-68
2023/09/02 09:07:02;;;;;;;;;8.25;7.75;;;;;24.55;56.93;101234.22;4973470;27;45570;-66
2023/09/02 09:09:32;;;;;;;;;9.75;7.00;;;;;24.42;56.30;101195.59;4973259;27;45515;-70
2023/09/02 09:12:01;;;;;;;;;7.75;7.00;;;;;24.68;56.19;101226.47;4973635;28;45665;-68
2023/09/02 09:14:31;;;;;;;;;9.50;7.50;;;;;24.67;55.95;101238.13;4973316;28;45399;-66
2023/09/02 09:16:58;;;;;;;;;8.25;7.00;;;;;24.68;56.11;101237.19;4984730;27;45326;-69
2023/09/02 09:19:27;;;;;;;;;7.00;5.75;;;;;24.47;55.60;101185.56;4958451;28;45366;-65
2023/09/02 09:21:54;;;;;;;;;5.75;5.75;;;;;24.78;55.64;101235.78;4977675;27;45320;-71
2023/09/02 09:24:21;;;;;;;;;9.00;9.00;;;;;24.75;55.99;101226.09;4976874;27;45565;-67
2023/09/02 09:26:48;;;;;;;;;6.00;6.00;;;;;24.56;55.91;101174.41;4976925;27;46580;-71
2023/09/02 09:29:21;;;;;;;;;8.00;6.25;;;;;24.86;55.73;101211.28;4976464;27;45686;-68
2023/09/02 09:31:48;;;;;;;;;7.50;7.50;;;;;24.94;55.50;101228.72;4978903;27;45487;-67
2023/09/02 09:34:14;;;;;;;;;8.00;6.25;;;;;24.98;55.11;101224.06;4976609;27;45357;-65
2023/09/02 09:36:40;;;;;;;;;9.75;7.25;;;;;25.08;55.33;101243.22;4976158;27;45811;-68
2023/09/02 09:39:07;;;;;;;;;7.00;7.00;;;;;24.82;55.27;101199.88;4971516;27;45330;-69
2023/09/02 09:41:37;;;;;;;;;5.50;5.25;;;;;25.30;55.27;101270.72;4970910;28;46555;-69
2023/09/02 09:44:14;;;;;;;;;7.00;5.75;;;;;25.34;55.04;101274.09;4976637;27;45292;-70
2023/09/02 09:46:42;;;;;;;;;5.00;5.00;;;;;25.42;54.48;101279.09;4976018;27;45670;-67
2023/09/02 09:49:22;;;;;;;;;6.50;6.50;;;;;25.42;54.14;101277.25;4977141;27;45776;-66
2023/09/02 09:51:51;;;;;;;;;5.00;5.00;;;;;25.46;54.31;101269.91;4975654;27;45931;-66
2023/09/02 09:54:17;;;;;;;;;5.50;4.75;;;;;25.43;54.43;101265.56;4976121;27;45463;-69
2023/09/02 09:56:44;;;;;;;;;7.00;6.00;;;;;25.62;54.33;101286.09;4975965;28;46315;-70
2023/09/02 09:59:10;;;;;;;;;6.00;6.00;;;;;25.59;54.20;101262.97;4975640;27;45577;-66
2023/09/02 10:01:38;;;;;;;;;6.00;6.00;;;;;25.53;54.04;101239.13;4975733;27;45411;-71
2023/09/02 10:04:12;;;;;;;;;5.25;5.00;;;;;25.81;53.07;101276.97;4975684;28;45442;-67
2023/09/02 10:06:38;;;;;;;;;6.75;5.00;;;;;25.98;52.42;101294.00;4975416;28;45479;-73
2023/09/02 10:09:04;;;;;;;;;7.00;6.25;;;;;25.71;52.82;101254.28;4976220;27;45462;-69
2023/09/02 10:11:30;;;;;;;;;7.75;6.50;;;;;26.08;53.38;101287.22;4974526;27;45928;-69
2023/09/02 10:14:02;;;;;;;;;5.00;5.00;;;;;25.98;52.25;101262.69;4998655;27;46156;-66
2023/09/02 10:16:30;;;;;;;;;5.00;5.00;;;;;26.12;51.63;101267.28;5009247;27;45563;-66
2023/09/02 10:18:59;;;;;;;;;5.25;4.50;;;;;26.32;51.58;101285.00;5027519;27;45997;-65
2023/09/02 10:21:29;;;;;;;;;6.25;6.25;;;;;26.39;51.09;101274.78;5074185;27;45688;-65
2023/09/02 10:24:03;;;;;;;;;7.00;5.25;;;;;26.20;51.60;101258.84;4970579;28;45263;-71
2023/09/02 10:26:43;;;;;;;;;3.25;2.75;;;;;26.36;51.33;101283.91;4974940;27;47074;-67
2023/09/02 10:29:16;;;;;;;;;6.00;6.00;;;;;26.42;51.74;101290.72;4986803;27;45492;-67
2023/09/02 10:31:48;;;;;;;;;6.50;4.00;;;;;26.44;50.70;101267.34;4994907;27;45478;-65
2023/09/02 10:34:27;;;;;;;;;6.50;5.75;;;;;26.19;51.15;101223.03;4982461;27;45565;-65
2023/09/02 10:37:03;;;;;;;;;5.25;5.00;;;;;26.55;50.89;101270.34;4974802;27;45530;-66
2023/09/02 10:39:38;;;;;;;;;4.00;4.00;;;;;26.73;50.73;101289.03;4992166;27;45390;-67
2023/09/02 10:42:04;;;;;;;;;4.00;4.00;;;;;26.63;51.22;101248.41;4974193;27;45473;-70
2023/09/02 10:44:31;;;;;;;;;5.00;5.00;;;;;26.94;51.12;101279.75;5001066;27;45617;-67
2023/09/02 10:46:57;;;;;;;;;2.00;1.00;;;;;27.07;50.96;101269.13;5030135;27;45442;-65
2023/09/02 10:49:24;;;;;;;;;7.40;6.00;;;;;27.21;49.43;101273.72;5011835;27;45488;-67
2023/09/02 10:51:51;;;;;;;;;5.00;5.00;;;;;27.11;49.93;101235.72;4994227;27;45410;-67
2023/09/02 10:54:17;;;;;;;;;4.75;4.75;;;;;27.40;49.16;101274.34;5011517;27;45431;-67
2023/09/02 10:56:42;;;;;;;;;3.50;3.50;;;;;27.38;47.90;101256.56;5011779;28;47666;-67
2023/09/02 10:59:26;;;;;;;;;4.00;2.75;;;;;27.61;48.09;101284.78;4987758;27;45499;-66
2023/09/02 11:02:00;;;;;;;;;2.40;2.00;;;;;27.63;47.22;101290.94;4994968;27;45296;-67
2023/09/02 11:04:47;;;;;;;;;2.50;2.00;;;;;27.74;47.40;101295.66;4976968;28;45635;-66
2023/09/02 11:07:19;;;;;;;;;3.00;3.00;;;;;27.84;47.90;101297.72;4976662;27;48072;-67
2023/09/02 11:09:50;;;;;;;;;2.20;2.20;;;;;27.49;47.20;101230.75;4994968;27;45482;-66
2023/09/02 11:12:15;;;;;;;;;3.60;2.60;;;;;27.81;47.35;101275.47;4994708;27;45425;-67
2023/09/02 11:14:41;;;;;;;;;3.00;3.00;;;;;27.99;47.05;101293.22;4995529;27;45477;-66
2023/09/02 11:17:29;;;;;;;;;2.50;2.50;;;;;28.15;46.48;101300.34;4994570;27;46050;-66
2023/09/02 11:20:00;;;;;;;;;3.00;3.00;;;;;28.11;46.83;101275.41;4994266;27;45473;-66
2023/09/02 11:22:59;;;;;;;;;4.60;3.00;;;;;28.25;46.71;101266.47;4973359;28;45553;-66
2023/09/02 11:25:45;;;;;;;;;4.25;3.00;;;;;27.95;46.96;101204.66;4968871;28;45529;-65
2023/09/02 11:28:19;;;;;;;;;2.60;2.60;;;;;28.61;47.04;101286.63;4974170;27;45674;-65